Time;durP1;ratioP1;P1;durP2;ratioP2;P2;SDS_P1;SDS_P2;PMS_P1;PMS_P2;Temp;Humidity;BMP_temperature;BMP_pressure;BME280_temperature;BME280_humidity;BME280_pressure;Samples;Min_cycle;Max_cycle;Signal;HPM_P1;HPM_P2
2021/01/08 00:00:13;;;;;;;16.90;11.60;;;1.00;99.90;;;;;;6264858;23;20801;-96
2021/01/08 00:02:39;;;;;;;21.07;13.47;;;1.00;99.90;;;;;;6238397;23;20167;-96
2021/01/08 00:05:05;;;;;;;19.13;13.07;;;0.90;99.90;;;;;;6239223;23;20389;-96
2021/01/08 00:07:35;;;;;;;20.67;13.77;;;0.90;99.90;;;;;;6254311;23;20167;-94
2021/01/08 00:10:01;;;;;;;17.97;12.83;;;0.90;99.90;;;;;;6240267;23;20924;-93
2021/01/08 00:12:31;;;;;;;21.83;12.03;;;1.00;99.90;;;;;;6234181;23;20709;-93
2021/01/08 00:14:57;;;;;;;18.83;13.20;;;1.00;99.90;;;;;;6233842;23;20481;-93
2021/01/08 00:17:25;;;;;;;22.03;13.20;;;0.90;99.90;;;;;;6234584;23;20409;-93
2021/01/08 00:19:51;;;;;;;18.53;12.50;;;1.00;99.90;;;;;;6232592;23;20770;-92
2021/01/08 00:22:17;;;;;;;20.87;12.90;;;0.90;99.90;;;;;;6233052;23;20651;-93
2021/01/08 00:24:42;;;;;;;21.23;13.70;;;1.00;99.90;;;;;;6233059;23;20401;-93
2021/01/08 00:27:10;;;;;;;19.33;13.23;;;1.00;99.90;;;;;;6233137;23;20163;-90
2021/01/08 00:29:36;;;;;;;21.43;13.13;;;1.00;99.90;;;;;;6234426;23;20182;-94
2021/01/08 00:32:01;;;;;;;17.77;12.60;;;1.00;99.90;;;;;;6232836;23;20401;-93
2021/01/08 00:34:27;;;;;;;15.50;11.23;;;1.00;99.90;;;;;;6232890;23;20163;-93
2021/01/08 00:36:54;;;;;;;20.80;13.20;;;1.00;99.90;;;;;;6233929;23;20561;-93
2021/01/08 00:39:21;;;;;;;19.83;13.97;;;1.00;99.90;;;;;;6232637;23;20187;-93
2021/01/08 00:41:50;;;;;;;22.30;13.47;;;1.00;99.90;;;;;;6233072;23;20488;-93
2021/01/08 00:44:16;;;;;;;20.10;14.50;;;1.00;99.90;;;;;;6231885;23;20382;-94
2021/01/08 00:46:47;;;;;;;17.93;11.80;;;1.00;99.90;;;;;;6233910;23;20402;-93
2021/01/08 00:49:14;;;;;;;18.60;12.90;;;1.00;99.90;;;;;;6233777;23;20389;-93
2021/01/08 00:51:40;;;;;;;16.30;12.40;;;1.10;99.90;;;;;;6231550;23;20424;-93
2021/01/08 00:54:06;;;;;;;17.60;12.30;;;1.00;99.90;;;;;;6232332;23;20502;-93
2021/01/08 00:56:32;;;;;;;19.90;13.57;;;1.00;99.90;;;;;;6224199;23;20467;-93
2021/01/08 00:58:58;;;;;;;20.70;13.13;;;1.10;99.90;;;;;;6233025;23;20382;-93
2021/01/08 01:01:24;;;;;;;20.60;13.50;;;1.10;99.90;;;;;;6233444;23;20402;-95
2021/01/08 01:03:52;;;;;;;19.70;13.70;;;1.00;99.90;;;;;;6236033;23;20185;-93
2021/01/08 01:06:24;;;;;;;20.00;13.03;;;1.10;99.90;;;;;;6234220;23;20405;-94
2021/01/08 01:08:51;;;;;;;18.10;13.33;;;1.10;99.90;;;;;;6235241;23;20594;-94
2021/01/08 01:11:18;;;;;;;19.87;12.43;;;1.10;99.90;;;;;;6233505;23;20420;-94
2021/01/08 01:13:45;;;;;;;15.73;11.80;;;1.10;99.90;;;;;;6233092;23;20397;-95
2021/01/08 01:16:14;;;;;;;18.97;12.30;;;1.00;99.90;;;;;;6233792;23;20425;-94
2021/01/08 01:18:42;;;;;;;17.87;12.03;;;1.00;99.90;;;;;;6233671;23;20417;-94
2021/01/08 01:21:07;;;;;;;19.10;12.60;;;1.10;99.90;;;;;;6235055;22;20459;-94
2021/01/08 01:23:33;;;;;;;17.37;11.27;;;1.00;99.90;;;;;;6232504;23;20398;-94
2021/01/08 01:25:59;;;;;;;17.93;12.63;;;1.00;99.90;;;;;;6235172;23;20155;-94
2021/01/08 01:28:24;;;;;;;20.10;12.43;;;0.90;99.90;;;;;;6234722;22;20502;-94
2021/01/08 01:30:50;;;;;;;16.80;11.10;;;0.90;99.90;;;;;;6233553;23;20159;-94
2021/01/08 01:33:18;;;;;;;16.80;12.33;;;0.90;99.90;;;;;;6234877;23;20490;-94
2021/01/08 01:35:44;;;;;;;18.70;12.47;;;0.90;99.90;;;;;;6233168;23;20162;-94
2021/01/08 01:38:09;;;;;;;21.27;12.97;;;0.90;99.90;;;;;;6232817;23;20452;-95
2021/01/08 01:40:37;;;;;;;18.50;12.10;;;0.90;99.90;;;;;;6233743;23;20202;-94
2021/01/08 01:43:03;;;;;;;19.77;12.63;;;0.90;99.90;;;;;;6232115;23;20159;-93
2021/01/08 01:45:28;;;;;;;20.33;12.97;;;0.90;99.90;;;;;;6233600;23;20467;-94
2021/01/08 01:47:54;;;;;;;19.63;12.47;;;1.00;99.90;;;;;;6234285;23;20208;-93
2021/01/08 01:50:21;;;;;;;19.13;12.13;;;1.00;99.90;;;;;;6233209;23;20236;-94
2021/01/08 01:52:47;;;;;;;19.77;12.30;;;0.90;99.90;;;;;;6232762;23;20390;-94
2021/01/08 01:55:14;;;;;;;21.80;12.33;;;0.90;99.90;;;;;;6233408;23;20725;-93
2021/01/08 01:57:40;;;;;;;18.90;12.47;;;0.90;99.90;;;;;;6233377;23;20485;-94
2021/01/08 02:00:06;;;;;;;18.53;12.20;;;0.80;99.90;;;;;;6231921;23;20442;-92
2021/01/08 02:02:39;;;;;;;16.43;11.23;;;0.80;99.90;;;;;;6232542;23;20698;-94
2021/01/08 02:05:07;;;;;;;17.50;11.60;;;0.70;99.90;;;;;;6232771;23;21134;-93
2021/01/08 02:07:37;;;;;;;16.73;11.60;;;0.70;99.90;;;;;;6232541;23;20414;-93
2021/01/08 02:10:05;;;;;;;19.00;12.57;;;0.80;99.90;;;;;;6233658;23;20543;-93
2021/01/08 02:12:32;;;;;;;18.47;12.37;;;0.80;99.90;;;;;;6232613;23;20689;-95
2021/01/08 02:15:00;;;;;;;16.67;11.43;;;0.80;99.90;;;;;;6232250;23;20505;-94
2021/01/08 02:17:28;;;;;;;16.10;10.83;;;0.80;99.90;;;;;;6231398;23;20390;-94
2021/01/08 02:20:07;;;;;;;16.87;11.00;;;0.80;99.90;;;;;;6231089;23;20448;-92
2021/01/08 02:22:47;;;;;;;18.73;11.33;;;0.70;99.90;;;;;;6231681;23;20389;-93
2021/01/08 02:25:25;;;;;;;16.07;10.33;;;0.70;99.90;;;;;;6231430;23;20404;-91
2021/01/08 02:28:00;;;;;;;17.60;11.70;;;0.70;99.90;;;;;;6231733;23;20397;-93
2021/01/08 02:30:26;;;;;;;17.10;10.40;;;0.80;99.90;;;;;;6232130;23;20401;-93
2021/01/08 02:32:52;;;;;;;15.10;10.87;;;0.70;99.90;;;;;;6231589;23;20400;-95
2021/01/08 02:35:18;;;;;;;20.00;13.57;;;0.70;99.90;;;;;;6232164;23;20261;-93
2021/01/08 02:37:44;;;;;;;17.30;11.23;;;0.70;99.90;;;;;;6234844;23;20398;-94
2021/01/08 02:40:14;;;;;;;16.47;11.07;;;0.70;99.90;;;;;;6230989;23;20850;-94
2021/01/08 02:42:42;;;;;;;16.63;10.87;;;0.80;99.90;;;;;;6232701;23;20393;-96
2021/01/08 02:45:08;;;;;;;15.43;10.77;;;0.80;99.90;;;;;;6231422;23;20425;-93
2021/01/08 02:47:34;;;;;;;14.17;10.60;;;0.70;99.90;;;;;;6231557;23;20830;-93
2021/01/08 02:50:00;;;;;;;18.90;11.50;;;0.70;99.90;;;;;;6235214;23;20421;-95
2021/01/08 02:52:27;;;;;;;17.37;11.73;;;0.80;99.90;;;;;;6235466;23;20250;-94
2021/01/08 02:54:54;;;;;;;15.50;11.43;;;0.70;99.90;;;;;;6237479;23;20170;-93
2021/01/08 02:57:20;;;;;;;17.70;11.87;;;0.70;99.90;;;;;;6237476;23;20389;-94
2021/01/08 02:59:46;;;;;;;17.97;12.00;;;0.70;99.90;;;;;;6235017;23;20441;-96
2021/01/08 03:02:12;;;;;;;16.40;11.40;;;0.60;99.90;;;;;;6242047;23;20390;-96
2021/01/08 03:04:40;;;;;;;18.30;11.80;;;0.60;99.90;;;;;;6241415;23;20213;-96
2021/01/08 03:07:07;;;;;;;17.23;11.00;;;0.50;99.90;;;;;;6239605;23;20596;-95
2021/01/08 03:09:32;;;;;;;17.80;11.60;;;0.40;99.90;;;;;;6238329;23;20405;-94
2021/01/08 03:11:58;;;;;;;16.43;10.17;;;0.50;99.90;;;;;;6234159;23;20393;-92
2021/01/08 03:14:24;;;;;;;18.43;11.63;;;0.40;99.90;;;;;;6232046;23;20167;-93
2021/01/08 03:16:50;;;;;;;17.00;10.87;;;0.50;99.90;;;;;;6232643;23;20469;-93
2021/01/08 03:19:16;;;;;;;17.30;11.07;;;0.40;99.90;;;;;;6232753;23;20425;-93
2021/01/08 03:21:43;;;;;;;18.27;11.00;;;0.40;99.90;;;;;;6233653;23;20224;-93
2021/01/08 03:24:09;;;;;;;17.67;10.80;;;0.40;99.90;;;;;;6232590;23;20163;-94
2021/01/08 03:26:35;;;;;;;16.13;10.13;;;0.30;99.90;;;;;;6233614;23;20425;-95
2021/01/08 03:29:00;;;;;;;15.50;11.43;;;0.40;99.90;;;;;;6234918;23;20792;-96
2021/01/08 03:31:28;;;;;;;15.80;10.63;;;0.40;99.90;;;;;;6233813;23;20617;-94
2021/01/08 03:33:54;;;;;;;18.17;12.20;;;0.40;99.90;;;;;;6232663;23;20486;-92
2021/01/08 03:36:20;;;;;;;15.43;10.90;;;0.50;99.90;;;;;;6233686;23;20580;-93
2021/01/08 03:38:45;;;;;;;17.63;11.13;;;0.50;99.90;;;;;;6232821;23;20178;-93
2021/01/08 03:41:11;;;;;;;15.80;11.20;;;0.50;99.90;;;;;;6232657;23;20200;-93
2021/01/08 03:43:36;;;;;;;18.83;10.73;;;0.50;99.90;;;;;;6233239;23;20582;-92
2021/01/08 03:46:02;;;;;;;18.10;11.37;;;0.60;99.90;;;;;;6232766;23;20167;-93
2021/01/08 03:48:28;;;;;;;15.90;11.07;;;0.60;99.90;;;;;;6232945;23;20171;-92
2021/01/08 03:50:53;;;;;;;15.90;10.40;;;0.60;99.90;;;;;;6231771;23;20174;-92
2021/01/08 03:53:19;;;;;;;16.73;11.07;;;0.60;99.90;;;;;;6231626;23;20249;-92
2021/01/08 03:55:45;;;;;;;18.23;10.07;;;0.60;99.90;;;;;;6232964;23;20182;-93
2021/01/08 03:58:10;;;;;;;17.57;10.97;;;0.50;99.90;;;;;;6231990;23;20167;-92
2021/01/08 04:00:36;;;;;;;17.57;11.20;;;0.60;99.90;;;;;;6232055;23;20244;-94
2021/01/08 04:03:01;;;;;;;16.13;11.80;;;0.60;99.90;;;;;;6233592;23;20822;-93
2021/01/08 04:05:27;;;;;;;18.60;10.60;;;0.60;99.90;;;;;;6232572;23;20174;-93
2021/01/08 04:07:52;;;;;;;17.10;10.80;;;0.50;99.90;;;;;;6232740;23;20163;-92
2021/01/08 04:10:18;;;;;;;17.87;11.00;;;0.50;99.90;;;;;;6231449;23;20194;-92
2021/01/08 04:12:44;;;;;;;15.40;10.50;;;0.50;99.90;;;;;;6232145;23;20174;-94
2021/01/08 04:15:09;;;;;;;17.33;11.07;;;0.60;99.90;;;;;;6237384;23;20193;-96
2021/01/08 04:17:35;;;;;;;13.80;8.60;;;0.60;99.90;;;;;;6236989;23;20163;-96
2021/01/08 04:20:01;;;;;;;19.03;11.30;;;0.50;99.90;;;;;;6234346;23;20195;-94
2021/01/08 04:22:26;;;;;;;14.07;10.00;;;0.60;99.90;;;;;;6233294;23;20163;-94
2021/01/08 04:24:52;;;;;;;17.40;10.97;;;0.60;99.90;;;;;;6232986;23;20167;-94
2021/01/08 04:27:17;;;;;;;15.27;10.57;;;0.50;99.90;;;;;;6232436;23;20289;-94
2021/01/08 04:29:43;;;;;;;15.87;10.60;;;0.50;99.90;;;;;;6233935;23;20173;-95
2021/01/08 04:32:09;;;;;;;16.50;10.17;;;0.50;99.90;;;;;;6233357;23;20170;-95
2021/01/08 04:34:34;;;;;;;16.97;10.40;;;0.40;99.90;;;;;;6233462;23;20170;-94
2021/01/08 04:37:00;;;;;;;19.50;9.80;;;0.40;99.90;;;;;;6233614;23;20217;-95
2021/01/08 04:39:25;;;;;;;13.10;9.10;;;0.40;99.90;;;;;;6234187;23;20225;-95
2021/01/08 04:41:52;;;;;;;14.20;9.77;;;0.40;99.90;;;;;;6234069;23;20163;-94
2021/01/08 04:44:18;;;;;;;17.30;10.67;;;0.40;99.90;;;;;;6233332;23;20158;-94
2021/01/08 04:46:51;;;;;;;13.67;8.60;;;0.40;99.90;;;;;;6233855;22;20394;-95
2021/01/08 04:49:18;;;;;;;16.47;9.63;;;0.30;99.90;;;;;;6232554;23;20465;-95
2021/01/08 04:51:45;;;;;;;15.40;10.30;;;0.40;99.90;;;;;;6233828;23;20394;-94
2021/01/08 04:54:11;;;;;;;15.97;10.23;;;0.40;99.90;;;;;;6247514;23;20378;-96
2021/01/08 04:56:45;;;;;;;14.33;10.30;;;0.40;99.90;;;;;;6250022;23;20409;-96
2021/01/08 04:59:12;;;;;;;14.50;9.23;;;0.40;99.90;;;;;;6233830;23;20423;-95
2021/01/08 05:01:38;;;;;;;14.73;10.43;;;0.50;99.90;;;;;;6232044;23;20397;-93
2021/01/08 05:04:04;;;;;;;17.50;11.30;;;0.50;99.90;;;;;;6231930;23;20884;-94
2021/01/08 05:06:32;;;;;;;15.13;9.30;;;0.50;99.90;;;;;;6234038;23;20685;-95
2021/01/08 05:08:57;;;;;;;15.37;10.53;;;0.50;99.90;;;;;;6233317;23;20390;-94
2021/01/08 05:11:25;;;;;;;13.63;9.77;;;0.40;99.90;;;;;;6232524;23;20394;-93
2021/01/08 05:14:03;;;;;;;13.90;8.83;;;0.40;99.90;;;;;;6233671;23;20257;-93
2021/01/08 05:16:31;;;;;;;13.23;8.40;;;0.50;99.90;;;;;;6236385;23;20405;-95
2021/01/08 05:18:58;;;;;;;12.27;8.17;;;0.50;99.90;;;;;;6233014;23;20765;-95
2021/01/08 05:21:25;;;;;;;13.17;8.07;;;0.50;99.90;;;;;;6239962;23;20441;-96
2021/01/08 05:23:55;;;;;;;11.10;7.70;;;0.50;99.90;;;;;;6236537;23;20421;-95
2021/01/08 05:26:22;;;;;;;10.30;7.50;;;0.50;99.90;;;;;;6259453;22;20410;-96
2021/01/08 05:29:13;;;;;;;14.23;8.93;;;0.50;99.90;;;;;;6246708;23;20433;-96
2021/01/08 05:31:40;;;;;;;9.60;7.43;;;0.50;99.90;;;;;;6233507;23;20765;-95
2021/01/08 05:34:06;;;;;;;12.30;8.57;;;0.50;99.90;;;;;;6233882;23;20410;-95
2021/01/08 05:36:32;;;;;;;13.00;8.47;;;0.50;99.90;;;;;;6235736;23;20398;-95
2021/01/08 05:49:20;;;;;;;14.03;8.40;;;0.40;99.90;;;;;;6192388;22;20788;-84
2021/01/08 05:51:47;;;;;;;15.40;9.43;;;0.50;99.90;;;;;;6204637;23;20447;-86
2021/01/08 05:54:14;;;;;;;10.67;7.20;;;0.50;99.90;;;;;;6204695;23;20722;-86
2021/01/08 05:56:41;;;;;;;9.33;6.77;;;0.50;99.90;;;;;;6203737;23;20394;-86
2021/01/08 05:59:08;;;;;;;10.43;7.63;;;0.50;99.90;;;;;;6207760;23;20404;-87
2021/01/08 06:01:36;;;;;;;13.93;8.50;;;0.50;99.90;;;;;;6206685;23;20408;-87
2021/01/08 06:04:03;;;;;;;11.53;7.30;;;0.50;99.90;;;;;;6206396;23;20477;-87
2021/01/08 06:06:42;;;;;;;10.93;7.33;;;0.50;99.90;;;;;;6181920;23;20830;-86
2021/01/08 06:09:11;;;;;;;13.40;8.23;;;0.50;99.90;;;;;;6207263;23;20394;-86
2021/01/08 06:11:37;;;;;;;12.60;8.43;;;0.50;99.90;;;;;;6207580;23;20398;-90
2021/01/08 06:14:10;;;;;;;8.23;7.27;;;0.50;99.90;;;;;;6209915;23;20394;-93
2021/01/08 06:16:38;;;;;;;11.50;6.97;;;0.50;99.90;;;;;;6155315;22;20451;-93
2021/01/08 06:19:06;;;;;;;9.50;7.20;;;0.40;99.90;;;;;;6239576;22;20432;-93
2021/01/08 06:21:56;;;;;;;10.93;7.53;;;0.40;99.90;;;;;;6239895;22;20453;-91
2021/01/08 06:24:25;;;;;;;8.77;6.20;;;0.50;99.90;;;;;;6241847;22;20574;-94
2021/01/08 06:26:52;;;;;;;10.73;7.70;;;0.40;99.90;;;;;;6242322;22;20403;-91
2021/01/08 06:29:20;;;;;;;11.67;8.00;;;0.40;99.90;;;;;;6240115;22;20393;-85
2021/01/08 06:31:45;;;;;;;8.23;6.60;;;0.40;99.90;;;;;;6240090;22;20793;-91
2021/01/08 06:34:11;;;;;;;9.27;6.27;;;0.40;99.90;;;;;;6240813;22;20510;-93
2021/01/08 06:36:45;;;;;;;10.90;7.77;;;0.40;99.90;;;;;;6240489;22;20166;-91
2021/01/08 06:39:20;;;;;;;10.90;7.30;;;0.40;99.90;;;;;;6240503;22;20175;-92
2021/01/08 06:41:52;;;;;;;11.30;6.87;;;0.40;99.90;;;;;;6240631;22;20391;-89
2021/01/08 06:44:24;;;;;;;14.57;7.30;;;0.50;99.90;;;;;;6238859;22;20423;-90
2021/01/08 06:46:58;;;;;;;10.43;7.50;;;0.50;99.90;;;;;;6240405;22;20416;-92
2021/01/08 06:49:24;;;;;;;12.20;8.47;;;0.60;99.90;;;;;;6240487;22;20384;-91
2021/01/08 06:51:50;;;;;;;15.83;11.70;;;0.60;99.90;;;;;;6240139;22;20514;-92
2021/01/08 06:54:27;;;;;;;8.97;7.60;;;0.60;99.90;;;;;;6241229;22;20427;-93
2021/01/08 06:57:09;;;;;;;10.30;6.70;;;0.60;99.90;;;;;;6260297;22;20400;-93
2021/01/08 07:00:06;;;;;;;14.23;7.00;;;0.50;99.90;;;;;;6276545;22;20447;-95
2021/01/08 07:02:34;;;;;;;9.37;6.57;;;0.60;99.90;;;;;;6230050;22;20415;-95
2021/01/08 07:05:03;;;;;;;10.80;6.90;;;0.60;99.90;;;;;;6256050;22;20397;-95
2021/01/08 07:07:30;;;;;;;10.93;6.90;;;0.60;99.90;;;;;;6245806;22;20458;-95
2021/01/08 07:15:37;;;;;;;10.57;7.13;;;0.60;99.90;;;;;;6252073;22;20508;-95
2021/01/08 07:24:02;;;;;;;10.93;7.17;;;0.70;99.90;;;;;;6250288;23;20440;-96
2021/01/08 07:29:25;;;;;;;11.37;7.47;;;0.70;99.90;;;;;;6247122;23;20394;-96
2021/01/08 07:31:52;;;;;;;12.83;8.30;;;0.70;99.90;;;;;;6220545;23;20444;-94
2021/01/08 07:34:17;;;;;;;10.13;6.97;;;0.80;99.90;;;;;;6224262;23;20425;-96
2021/01/08 07:43:15;;;;;;;9.50;6.97;;;0.70;99.90;;;;;;6252903;23;20378;-93
2021/01/08 07:45:59;;;;;;;10.50;7.80;;;0.80;99.90;;;;;;6217957;23;20386;-96
2021/01/08 07:48:30;;;;;;;10.13;7.00;;;0.90;99.90;;;;;;6232518;23;20405;-95
2021/01/08 07:50:56;;;;;;;11.80;8.13;;;1.00;99.90;;;;;;6218390;23;20480;-94
2021/01/08 07:53:42;;;;;;;12.60;8.43;;;0.90;99.90;;;;;;6219010;23;20402;-94
2021/01/08 07:56:27;;;;;;;9.57;7.10;;;0.90;99.90;;;;;;6215524;23;20167;-95
2021/01/08 07:58:58;;;;;;;12.30;7.70;;;1.00;99.90;;;;;;6213132;23;20445;-95
2021/01/08 08:01:25;;;;;;;9.93;7.63;;;1.00;99.90;;;;;;6210334;23;20438;-95
2021/01/08 08:04:20;;;;;;;8.30;6.77;;;1.00;99.90;;;;;;6218057;23;20429;-95
2021/01/08 08:06:47;;;;;;;17.03;8.70;;;1.10;99.90;;;;;;6182562;23;20390;-92
2021/01/08 08:09:33;;;;;;;11.70;7.90;;;1.00;99.90;;;;;;6215321;23;20864;-94
2021/01/08 08:12:15;;;;;;;10.03;7.50;;;1.00;99.90;;;;;;6224006;23;20401;-96
2021/01/08 08:14:42;;;;;;;11.57;7.90;;;1.00;99.90;;;;;;6228959;23;20425;-96
2021/01/08 08:17:16;;;;;;;12.03;9.20;;;1.00;99.90;;;;;;6225636;23;20436;-94
2021/01/08 08:19:42;;;;;;;13.13;9.40;;;1.00;99.90;;;;;;6216829;23;20448;-92
2021/01/08 08:22:09;;;;;;;14.33;8.87;;;1.20;99.90;;;;;;6224493;23;20418;-96
2021/01/08 08:35:16;;;;;;;12.33;8.13;;;1.20;99.90;;;;;;6253128;22;20429;-94
2021/01/08 08:37:52;;;;;;;10.60;8.03;;;1.10;99.90;;;;;;6253266;22;20754;-95
2021/01/08 08:42:56;;;;;;;11.97;7.60;;;1.20;99.90;;;;;;6239127;22;20488;-95
2021/01/08 08:45:23;;;;;;;10.27;8.60;;;1.20;99.90;;;;;;6226852;23;20390;-95
2021/01/08 08:47:54;;;;;;;10.70;7.30;;;1.20;99.90;;;;;;6213720;23;20402;-96
2021/01/08 08:50:20;;;;;;;10.50;6.83;;;1.20;99.90;;;;;;6219390;23;20398;-92
2021/01/08 08:52:46;;;;;;;12.40;8.20;;;1.30;99.90;;;;;;6211537;23;20771;-92
2021/01/08 08:55:32;;;;;;;7.87;6.77;;;1.40;99.90;;;;;;6212200;23;20402;-94
2021/01/08 08:58:21;;;;;;;9.90;7.90;;;1.40;99.90;;;;;;6211096;23;20386;-94
2021/01/08 09:00:47;;;;;;;11.00;7.50;;;1.40;99.90;;;;;;6219893;23;20446;-96
2021/01/08 09:03:24;;;;;;;12.10;8.07;;;1.40;99.90;;;;;;6212745;23;20835;-95
2021/01/08 09:05:53;;;;;;;11.00;7.87;;;1.40;99.90;;;;;;6216595;23;20429;-94
2021/01/08 09:08:22;;;;;;;10.50;7.40;;;1.40;99.90;;;;;;6211367;23;20386;-94
2021/01/08 09:10:58;;;;;;;10.50;7.60;;;1.50;99.90;;;;;;6214053;23;20394;-95
2021/01/08 09:13:54;;;;;;;11.40;7.10;;;1.40;99.90;;;;;;6232839;23;20409;-95
2021/01/08 09:16:28;;;;;;;12.17;7.17;;;1.50;99.90;;;;;;6211051;23;20396;-93
2021/01/08 09:19:20;;;;;;;10.10;7.20;;;1.70;99.90;;;;;;6215489;23;20401;-95
2021/01/08 09:21:48;;;;;;;11.23;7.57;;;1.80;99.90;;;;;;6206647;23;20405;-93
2021/01/08 09:24:23;;;;;;;7.37;6.57;;;1.70;99.90;;;;;;6207386;23;20899;-93
2021/01/08 09:26:49;;;;;;;9.30;7.00;;;1.70;99.90;;;;;;6207822;23;20402;-91
2021/01/08 09:29:35;;;;;;;9.30;6.87;;;1.70;99.90;;;;;;6208744;23;20720;-95
2021/01/08 09:32:02;;;;;;;9.10;6.50;;;1.60;99.90;;;;;;6211500;23;20405;-90
2021/01/08 09:34:31;;;;;;;8.50;6.17;;;1.80;99.90;;;;;;6218773;23;20390;-94
2021/01/08 09:36:59;;;;;;;12.00;7.27;;;1.80;99.90;;;;;;6206596;23;20398;-93
2021/01/08 09:39:29;;;;;;;10.67;7.43;;;1.90;99.90;;;;;;6206287;23;20716;-88
2021/01/08 09:42:04;;;;;;;10.00;6.90;;;2.10;99.90;;;;;;6216877;23;20421;-90
2021/01/08 09:45:18;;;;;;;8.60;6.33;;;2.00;99.90;;;;;;6231424;23;20416;-93
2021/01/08 09:47:45;;;;;;;9.47;6.90;;;2.10;99.90;;;;;;6224319;23;20740;-89
2021/01/08 09:50:43;;;;;;;7.97;6.77;;;2.30;99.90;;;;;;6230427;22;20421;-93
2021/01/08 09:53:11;;;;;;;8.27;6.03;;;2.50;99.90;;;;;;6200477;23;20833;-89
2021/01/08 09:55:37;;;;;;;7.43;5.57;;;2.80;99.90;;;;;;6233032;23;20746;-93
2021/01/08 09:58:03;;;;;;;10.50;7.13;;;3.10;99.90;;;;;;6231946;23;20721;-92
2021/01/08 10:00:35;;;;;;;7.53;6.20;;;3.10;99.90;;;;;;6232570;23;20524;-91
2021/01/08 10:03:02;;;;;;;7.80;5.83;;;3.20;99.90;;;;;;6233984;23;20428;-92
2021/01/08 10:05:30;;;;;;;5.87;5.27;;;3.20;99.90;;;;;;6241816;23;20496;-91
2021/01/08 10:07:57;;;;;;;6.93;4.93;;;3.20;99.90;;;;;;6239030;23;20394;-91
2021/01/08 10:10:26;;;;;;;5.70;5.10;;;3.20;99.90;;;;;;6231482;23;20416;-92
2021/01/08 10:12:53;;;;;;;5.07;4.57;;;2.90;99.90;;;;;;6237226;23;20452;-94
2021/01/08 10:15:32;;;;;;;5.30;4.37;;;2.90;99.90;;;;;;6236296;23;20401;-94
2021/01/08 10:18:09;;;;;;;6.00;5.37;;;2.90;99.90;;;;;;6233041;23;20394;-93
2021/01/08 10:21:05;;;;;;;5.50;4.93;;;2.90;99.90;;;;;;6236359;23;20517;-94
2021/01/08 10:23:43;;;;;;;6.00;5.40;;;3.10;99.90;;;;;;6236401;22;20436;-92
2021/01/08 10:26:15;;;;;;;7.40;4.97;;;3.00;99.90;;;;;;6236607;23;20401;-92
2021/01/08 10:28:49;;;;;;;6.23;4.90;;;2.90;99.90;;;;;;6238589;22;20644;-95
2021/01/08 10:31:16;;;;;;;4.40;3.97;;;2.90;99.90;;;;;;6230206;23;20411;-93
2021/01/08 10:33:42;;;;;;;5.63;4.63;;;2.70;99.90;;;;;;6234180;23;20387;-93
2021/01/08 10:36:07;;;;;;;5.87;4.30;;;2.60;99.90;;;;;;6231204;23;20816;-94
2021/01/08 10:38:33;;;;;;;6.40;5.17;;;2.80;99.90;;;;;;6232340;23;20250;-94
2021/01/08 10:40:59;;;;;;;11.27;5.27;;;3.00;99.90;;;;;;6237309;22;20770;-93
2021/01/08 10:43:24;;;;;;;6.87;5.50;;;3.00;99.90;;;;;;6237200;22;20171;-92
2021/01/08 10:45:50;;;;;;;7.03;5.00;;;3.00;99.90;;;;;;6236947;22;20890;-92
2021/01/08 10:48:16;;;;;;;7.40;5.17;;;2.90;99.90;;;;;;6239225;22;20160;-92
2021/01/08 10:50:43;;;;;;;6.83;5.47;;;2.90;99.90;;;;;;6238765;22;20156;-94
2021/01/08 10:53:08;;;;;;;7.33;5.40;;;2.90;99.90;;;;;;6239449;22;20396;-91
2021/01/08 10:55:34;;;;;;;7.23;5.90;;;3.10;99.90;;;;;;6237161;22;21403;-91
2021/01/08 10:58:06;;;;;;;5.63;5.10;;;3.20;99.90;;;;;;6237386;22;20152;-92
2021/01/08 11:00:31;;;;;;;5.67;4.87;;;3.30;99.90;;;;;;6237744;22;20664;-83
2021/01/08 11:02:57;;;;;;;6.10;5.13;;;3.30;99.90;;;;;;6233324;22;20384;-84
2021/01/08 11:05:23;;;;;;;6.07;5.13;;;3.30;99.90;;;;;;6235640;22;20172;-84
2021/01/08 11:07:49;;;;;;;6.87;4.57;;;3.30;99.90;;;;;;6236401;22;20270;-83
2021/01/08 11:10:16;;;;;;;7.97;5.10;;;3.30;99.90;;;;;;6235582;22;20493;-84
2021/01/08 11:13:06;;;;;;;4.97;4.43;;;3.40;99.90;;;;;;6239392;22;20499;-83
2021/01/08 11:15:45;;;;;;;5.10;4.37;;;3.40;99.90;;;;;;6241102;22;20392;-83
2021/01/08 11:18:26;;;;;;;4.47;3.83;;;3.40;99.90;;;;;;6239085;22;20429;-84
2021/01/08 11:20:58;;;;;;;3.90;3.50;;;3.50;99.90;;;;;;6238176;22;20452;-83
2021/01/08 11:23:25;;;;;;;5.40;3.63;;;3.00;99.90;;;;;;6242853;22;20389;-81
2021/01/08 11:26:26;;;;;;;4.43;3.80;;;2.80;99.90;;;;;;6241387;22;20755;-81
2021/01/08 11:29:26;;;;;;;4.53;4.03;;;2.80;99.90;;;;;;6240235;22;20398;-82
2021/01/08 11:32:23;;;;;;;5.23;4.23;;;2.90;99.90;;;;;;6241413;22;20398;-81
2021/01/08 11:35:07;;;;;;;3.50;2.90;;;2.90;99.90;;;;;;6240750;22;20399;-82
2021/01/08 11:37:34;;;;;;;4.50;4.10;;;2.90;99.90;;;;;;6239391;22;20739;-82
2021/01/08 11:40:04;;;;;;;4.07;3.67;;;2.90;99.90;;;;;;6239108;22;20759;-82
2021/01/08 11:42:49;;;;;;;4.63;3.60;;;2.90;99.90;;;;;;6234971;23;20730;-81
2021/01/08 11:45:29;;;;;;;5.63;4.73;;;2.80;99.90;;;;;;6235008;23;20387;-82
2021/01/08 11:47:54;;;;;;;6.47;2.73;;;2.80;99.90;;;;;;6230622;23;20409;-82
2021/01/08 11:50:20;;;;;;;4.87;4.20;;;2.80;99.90;;;;;;6231861;23;20392;-82
2021/01/08 11:52:46;;;;;;;3.60;3.30;;;2.90;99.90;;;;;;6231757;23;20164;-82
2021/01/08 11:55:11;;;;;;;3.40;3.10;;;3.00;99.90;;;;;;6229807;23;20162;-82
2021/01/08 11:57:38;;;;;;;3.43;3.13;;;3.00;99.90;;;;;;6228863;23;20192;-82
2021/01/08 12:00:05;;;;;;;4.90;3.77;;;3.10;99.90;;;;;;6231221;23;20321;-82
2021/01/08 12:02:31;;;;;;;4.27;3.87;;;3.20;99.90;;;;;;6206995;23;20892;-82
2021/01/08 12:04:56;;;;;;;4.37;3.70;;;3.20;99.90;;;;;;6232238;23;20387;-88
2021/01/08 12:07:22;;;;;;;5.47;3.80;;;3.20;99.90;;;;;;6229526;23;20194;-85
2021/01/08 12:09:48;;;;;;;6.97;4.70;;;3.20;99.90;;;;;;6230668;23;20628;-85
2021/01/08 12:12:13;;;;;;;4.47;3.97;;;3.30;99.90;;;;;;6232927;23;20159;-86
2021/01/08 12:14:39;;;;;;;3.40;2.83;;;3.30;99.90;;;;;;6231417;23;20180;-85
2021/01/08 12:17:06;;;;;;;3.40;2.87;;;3.20;99.90;;;;;;6231727;23;20531;-86
2021/01/08 12:19:33;;;;;;;3.30;2.63;;;3.10;99.90;;;;;;6230656;23;20515;-85
2021/01/08 12:21:59;;;;;;;2.90;2.20;;;3.10;99.90;;;;;;6230416;23;20398;-85
2021/01/08 12:24:27;;;;;;;2.90;2.50;;;3.00;99.90;;;;;;6231990;23;20397;-85
2021/01/08 12:26:56;;;;;;;2.73;2.50;;;3.10;99.90;;;;;;6231787;23;20172;-85
2021/01/08 12:29:23;;;;;;;4.13;3.00;;;3.10;99.90;;;;;;6232115;23;20430;-84
2021/01/08 12:31:49;;;;;;;8.43;7.50;;;3.10;99.90;;;;;;6231395;23;20397;-86
2021/01/08 12:34:15;;;;;;;3.43;3.00;;;3.20;99.90;;;;;;6232198;23;20505;-86
2021/01/08 12:36:41;;;;;;;4.67;3.53;;;2.90;99.90;;;;;;6231818;23;20758;-87
2021/01/08 12:39:10;;;;;;;3.77;3.47;;;2.80;99.90;;;;;;6225713;23;20178;-87
2021/01/08 12:41:36;;;;;;;4.07;3.23;;;2.70;99.90;;;;;;6230903;23;20199;-85
2021/01/08 12:44:01;;;;;;;3.03;2.73;;;2.80;99.90;;;;;;6229498;23;20390;-84
2021/01/08 12:46:27;;;;;;;4.33;3.77;;;2.80;99.90;;;;;;6230751;23;20477;-86
2021/01/08 12:49:46;;;;;;;5.93;4.07;;;2.70;99.90;;;;;;6230345;23;20609;-85
2021/01/08 13:02:45;;;;;;;10.33;5.17;;;3.00;99.90;;;;;;6233079;23;20408;-85
2021/01/08 13:08:44;;;;;;;3.90;3.37;;;3.20;99.90;;;;;;6234894;23;20981;-87
2021/01/08 13:11:44;;;;;;;4.30;3.33;;;3.20;99.90;;;;;;6231956;23;20405;-88
2021/01/08 13:14:44;;;;;;;8.80;3.87;;;3.30;99.90;;;;;;6233678;23;20894;-85
2021/01/08 13:17:44;;;;;;;4.20;3.43;;;3.30;99.90;;;;;;6234544;23;20585;-86
2021/01/08 13:20:44;;;;;;;3.70;2.77;;;3.30;99.90;;;;;;6232748;23;20908;-87
2021/01/08 13:23:47;;;;;;;4.93;3.80;;;3.50;99.90;;;;;;6231833;23;20773;-86
2021/01/08 13:29:44;;;;;;;3.30;3.00;;;3.30;99.90;;;;;;6227787;23;20412;-88
2021/01/08 13:32:45;;;;;;;3.13;2.90;;;3.40;99.90;;;;;;6233857;23;20399;-93
2021/01/08 13:49:43;;;;;;;5.17;4.13;;;3.10;99.90;;;;;;6264094;22;20386;-91
2021/01/08 13:52:46;;;;;;;6.07;4.80;;;2.90;99.90;;;;;;6230140;22;20489;-93
2021/01/08 14:05:44;;;;;;;3.67;3.23;;;2.70;99.90;;;;;;6257036;22;20391;-94
2021/01/08 14:08:45;;;;;;;3.90;3.60;;;2.80;99.90;;;;;;6207217;22;20509;-92
2021/01/08 14:11:47;;;;;;;5.07;3.63;;;2.80;99.90;;;;;;6232292;22;20450;-92
2021/01/08 14:14:44;;;;;;;9.20;4.30;;;2.70;99.90;;;;;;6232467;22;20936;-92
2021/01/08 14:17:44;;;;;;;4.40;3.93;;;2.70;99.90;;;;;;6225335;22;20701;-91
2021/01/08 14:20:47;;;;;;;5.47;3.60;;;2.70;99.90;;;;;;6221817;22;20433;-93
2021/01/08 14:23:44;;;;;;;6.83;4.20;;;2.70;99.90;;;;;;6227890;22;20506;-96
2021/01/08 14:26:44;;;;;;;6.67;4.27;;;2.80;99.90;;;;;;6227936;22;20400;-93
2021/01/08 14:29:10;;;;;;;6.87;5.03;;;2.70;99.90;;;;;;6231900;22;20395;-94
2021/01/08 14:31:43;;;;;;;6.10;3.63;;;2.70;99.90;;;;;;6226155;22;20404;-92